Time;durP1;ratioP1;P1;durP2;ratioP2;P2;SDS_P1;SDS_P2;PMS_P1;PMS_P2;Temp;Humidity;BMP_temperature;BMP_pressure;BME280_temperature;BME280_humidity;BME280_pressure;Samples;Min_cycle;Max_cycle;Signal;HPM_P1;HPM_P2
2023/12/29 00:01:20;;;;;;;21.90;12.02;;;;;;;0.53;83.30;95369.03;5013428;28;20030;-72
2023/12/29 00:03:45;;;;;;;16.05;10.13;;;;;;;0.50;83.28;95390.44;4996000;28;20038;-72
2023/12/29 00:06:10;;;;;;;16.30;9.45;;;;;;;0.61;82.86;95392.63;5010090;28;20484;-72
2023/12/29 00:08:36;;;;;;;19.75;10.77;;;;;;;0.62;82.98;95395.16;4979422;28;20034;-72
2023/12/29 00:11:02;;;;;;;16.02;10.50;;;;;;;0.64;82.43;95412.97;4979571;28;20022;-73
2023/12/29 00:13:27;;;;;;;20.23;12.00;;;;;;;0.44;82.81;95400.88;5012806;28;20499;-72
2023/12/29 00:15:53;;;;;;;19.67;11.15;;;;;;;0.66;82.91;95414.59;4978380;28;20034;-72
2023/12/29 00:18:19;;;;;;;17.08;9.63;;;;;;;0.79;82.55;95399.66;4976043;28;20173;-72
2023/12/29 00:20:44;;;;;;;13.52;8.45;;;;;;;0.97;81.08;95408.41;4976031;28;20046;-72
2023/12/29 00:23:10;;;;;;;16.83;9.95;;;;;;;0.85;81.26;95409.69;4976142;28;20050;-72
2023/12/29 00:25:38;;;;;;;11.73;8.27;;;;;;;0.84;81.20;95407.19;4978670;28;20682;-72
2023/12/29 00:28:07;;;;;;;14.48;8.48;;;;;;;0.94;81.51;95411.06;4995421;28;20411;-72
2023/12/29 00:30:32;;;;;;;11.43;7.20;;;;;;;0.95;80.25;95417.03;4979076;28;20424;-72
2023/12/29 00:32:58;;;;;;;11.50;7.60;;;;;;;1.00;80.28;95410.00;4993749;28;20034;-72
2023/12/29 00:35:23;;;;;;;14.80;8.10;;;;;;;0.93;79.54;95403.47;4994332;28;20095;-72
2023/12/29 00:37:51;;;;;;;14.35;8.80;;;;;;;0.91;79.31;95397.56;4978852;28;20038;-72
2023/12/29 00:40:17;;;;;;;17.05;8.60;;;;;;;0.85;79.51;95406.28;4995171;28;21015;-72
2023/12/29 00:42:42;;;;;;;14.23;7.90;;;;;;;0.98;78.48;95402.41;4992189;28;20026;-72
2023/12/29 00:45:08;;;;;;;16.73;10.00;;;;;;;0.87;78.15;95410.47;4995084;28;20041;-72
2023/12/29 00:47:33;;;;;;;14.32;8.73;;;;;;;0.56;78.25;95394.53;5012351;28;20041;-72
2023/12/29 00:50:00;;;;;;;16.50;10.48;;;;;;;0.68;78.19;95406.88;5006679;28;20116;-72
2023/12/29 00:52:25;;;;;;;17.77;10.77;;;;;;;0.68;77.53;95399.22;4989199;28;20045;-72
2023/12/29 00:54:51;;;;;;;18.27;9.80;;;;;;;0.54;77.44;95386.06;4989035;28;20032;-72
2023/12/29 00:57:16;;;;;;;18.15;9.45;;;;;;;0.48;78.79;95392.22;4972023;28;20034;-73
2023/12/29 00:59:43;;;;;;;15.23;8.07;;;;;;;0.52;78.89;95391.22;5007421;28;20440;-72
2023/12/29 01:02:09;;;;;;;15.13;8.98;;;;;;;0.57;78.48;95388.53;4972862;28;20041;-72
2023/12/29 01:04:35;;;;;;;17.92;9.95;;;;;;;0.49;79.24;95377.72;4988967;28;20485;-72
2023/12/29 01:07:01;;;;;;;19.17;11.45;;;;;;;0.37;78.96;95377.25;4975150;28;20030;-72
2023/12/29 01:09:27;;;;;;;15.82;10.57;;;;;;;0.34;78.48;95366.31;4989347;28;20459;-72
2023/12/29 01:11:53;;;;;;;23.67;12.52;;;;;;;0.31;78.44;95353.63;5007685;28;20056;-72
2023/12/29 01:14:18;;;;;;;16.85;10.05;;;;;;;0.43;78.38;95379.59;5006219;28;20062;-72
2023/12/29 01:16:43;;;;;;;15.73;9.10;;;;;;;0.34;78.50;95376.53;5008378;28;20030;-72
2023/12/29 01:19:09;;;;;;;13.82;7.68;;;;;;;0.36;78.52;95377.28;4969800;28;20060;-72
2023/12/29 01:21:37;;;;;;;15.30;8.48;;;;;;;-0.10;79.47;95358.41;4990610;28;20423;-72
2023/12/29 01:24:07;;;;;;;13.80;9.25;;;;;;;0.12;79.78;95378.97;4987986;28;20104;-73
2023/12/29 01:26:36;;;;;;;18.30;11.35;;;;;;;0.11;80.01;95387.50;4990669;28;20038;-72
2023/12/29 01:29:02;;;;;;;25.60;15.88;;;;;;;-0.06;80.66;95395.72;4956220;28;20034;-72
2023/12/29 01:31:30;;;;;;;20.70;12.80;;;;;;;-0.06;81.33;95396.53;4990243;28;20025;-72
2023/12/29 01:33:56;;;;;;;20.30;11.35;;;;;;;0.09;81.08;95395.22;4985983;28;20393;-72
2023/12/29 01:36:21;;;;;;;27.10;14.15;;;;;;;0.09;81.54;95390.13;4989172;28;20034;-72
2023/12/29 01:38:47;;;;;;;26.23;16.00;;;;;;;-0.17;81.24;95347.53;4956733;28;20038;-72
2023/12/29 01:41:13;;;;;;;26.27;15.48;;;;;;;0.16;81.41;95376.25;5008348;28;20333;-72
2023/12/29 01:44:01;;;;;;;35.40;19.50;;;;;;;-0.10;82.02;95384.78;4986679;28;20507;-72
2023/12/29 01:46:31;;;;;;;31.70;17.55;;;;;;;0.16;81.64;95381.34;4991951;28;20042;-72
2023/12/29 01:48:57;;;;;;;36.15;21.25;;;;;;;0.10;81.09;95380.72;4956304;28;20034;-72
2023/12/29 01:51:25;;;;;;;27.63;16.35;;;;;;;0.22;80.85;95382.88;4969113;28;20084;-73
2023/12/29 01:53:52;;;;;;;27.98;16.02;;;;;;;0.25;79.58;95376.81;4970546;28;20033;-72
2023/12/29 01:56:17;;;;;;;30.05;17.30;;;;;;;0.01;79.85;95365.72;4971018;28;20415;-72
2023/12/29 01:58:47;;;;;;;31.45;18.42;;;;;;;-0.09;80.41;95381.31;4955396;28;20029;-72
2023/12/29 02:01:12;;;;;;;29.52;16.95;;;;;;;-0.27;81.15;95381.94;4988716;28;20088;-72
2023/12/29 02:03:38;;;;;;;33.38;20.23;;;;;;;-0.33;81.47;95380.41;4986486;28;20591;-73
2023/12/29 02:06:03;;;;;;;33.60;19.10;;;;;;;-0.49;82.46;95351.13;4968445;28;20041;-73
2023/12/29 02:08:29;;;;;;;27.50;17.63;;;;;;;-0.22;82.72;95387.72;4974521;28;20113;-72
2023/12/29 02:10:55;;;;;;;21.90;13.77;;;;;;;-0.18;82.45;95394.41;4989540;28;20256;-73
2023/12/29 02:13:22;;;;;;;20.27;13.88;;;;;;;-0.12;81.54;95388.25;4991099;28;20054;-72
2023/12/29 02:15:48;;;;;;;39.60;21.30;;;;;;;-0.19;82.66;95384.25;4988740;28;20065;-71
2023/12/29 02:18:14;;;;;;;41.88;21.35;;;;;;;-0.36;83.10;95365.19;4988357;28;20038;-72
2023/12/29 02:20:41;;;;;;;27.70;17.05;;;;;;;-0.20;83.04;95362.13;4972691;28;20436;-72
2023/12/29 02:23:06;;;;;;;30.15;17.25;;;;;;;-0.21;83.33;95340.03;5003516;28;20051;-72
2023/12/29 02:25:32;;;;;;;25.17;14.10;;;;;;;-0.06;81.84;95350.56;5004010;28;20492;-72
2023/12/29 02:27:59;;;;;;;21.33;12.98;;;;;;;-0.22;81.58;95349.41;5003256;28;20504;-72
2023/12/29 02:30:30;;;;;;;21.05;12.63;;;;;;;-0.28;81.49;95347.03;5005011;28;20046;-72
2023/12/29 02:32:57;;;;;;;25.67;14.10;;;;;;;-0.25;82.35;95332.47;5004345;28;20065;-72
2023/12/29 02:35:24;;;;;;;32.50;16.80;;;;;;;-0.48;83.14;95337.47;5004197;28;20502;-72
2023/12/29 02:37:50;;;;;;;33.17;18.40;;;;;;;-0.61;84.15;95334.47;5005508;28;20092;-72
2023/12/29 02:40:16;;;;;;;25.98;17.33;;;;;;;-0.63;84.35;95328.56;4985893;28;20031;-72
2023/12/29 02:42:46;;;;;;;36.63;20.73;;;;;;;-0.48;84.42;95338.28;4967886;28;20048;-72
2023/12/29 02:45:11;;;;;;;32.78;21.17;;;;;;;-0.33;86.05;95331.06;5000457;28;20061;-72
2023/12/29 02:47:37;;;;;;;35.90;19.08;;;;;;;-0.18;86.28;95325.44;4989806;28;20041;-72
2023/12/29 02:50:02;;;;;;;31.20;19.13;;;;;;;-0.16;85.75;95315.19;4971608;28;20038;-72
2023/12/29 02:52:28;;;;;;;30.45;17.90;;;;;;;-0.23;85.65;95311.97;4990099;28;20712;-72
2023/12/29 02:54:53;;;;;;;35.00;20.90;;;;;;;-0.23;84.41;95302.59;5003190;28;20026;-72
2023/12/29 02:57:19;;;;;;;35.10;20.67;;;;;;;-0.31;84.76;95311.41;4987149;28;20121;-72
2023/12/29 02:59:44;;;;;;;34.00;19.02;;;;;;;-0.27;84.16;95292.56;5003937;28;20038;-72
2023/12/29 03:02:09;;;;;;;33.88;20.10;;;;;;;-0.44;84.84;95310.16;5005500;28;20037;-73
2023/12/29 03:04:35;;;;;;;26.77;15.55;;;;;;;-0.31;84.86;95299.47;4985245;28;20113;-72
2023/12/29 03:07:00;;;;;;;21.92;13.50;;;;;;;-0.23;84.41;95304.31;5007978;28;20092;-72
2023/12/29 03:09:26;;;;;;;17.05;10.57;;;;;;;-0.21;84.33;95304.28;5006011;28;20026;-72
2023/12/29 03:11:51;;;;;;;21.92;11.93;;;;;;;-0.19;83.55;95297.41;5009131;28;20460;-72
2023/12/29 03:14:17;;;;;;;20.98;13.15;;;;;;;-0.07;83.44;95295.25;4988094;28;20053;-72
2023/12/29 03:16:42;;;;;;;21.75;13.70;;;;;;;0.09;81.76;95287.09;5007064;28;20233;-72
2023/12/29 03:19:07;;;;;;;29.90;17.35;;;;;;;-0.12;82.34;95288.66;5006971;28;20045;-72
2023/12/29 03:21:33;;;;;;;35.67;17.60;;;;;;;-0.06;81.53;95279.03;5010936;28;20026;-72
2023/12/29 03:23:58;;;;;;;29.80;18.50;;;;;;;-0.14;81.45;95291.25;4988832;28;20416;-72
2023/12/29 03:26:23;;;;;;;32.67;18.02;;;;;;;-0.16;81.91;95287.91;5008609;28;20037;-72
2023/12/29 03:28:50;;;;;;;33.78;17.98;;;;;;;-0.17;81.20;95295.63;4991413;28;20050;-72
2023/12/29 03:31:15;;;;;;;29.95;17.80;;;;;;;-0.29;81.05;95279.81;4991873;28;20081;-72
2023/12/29 03:33:41;;;;;;;24.60;14.70;;;;;;;-0.19;81.17;95285.47;4990442;28;20486;-72
2023/12/29 03:36:07;;;;;;;25.65;14.75;;;;;;;-0.18;81.20;95286.31;5007470;28;20041;-72
2023/12/29 03:38:33;;;;;;;25.40;14.93;;;;;;;-0.20;81.02;95288.91;5009770;28;20169;-72
2023/12/29 03:40:58;;;;;;;34.33;19.40;;;;;;;-0.25;80.90;95289.06;4991913;28;20037;-72
2023/12/29 03:43:24;;;;;;;31.98;19.63;;;;;;;-0.57;81.28;95267.13;5006253;28;20064;-72
2023/12/29 03:45:49;;;;;;;35.90;21.60;;;;;;;-0.16;80.63;95287.91;5005144;28;20034;-72
2023/12/29 03:48:15;;;;;;;29.83;18.00;;;;;;;-0.18;79.67;95294.78;5010280;28;20037;-72
2023/12/29 03:50:40;;;;;;;28.23;16.40;;;;;;;-0.31;79.95;95302.00;5010082;28;20022;-72
2023/12/29 03:53:05;;;;;;;29.15;17.95;;;;;;;-0.38;80.14;95295.44;5009936;28;20025;-72
2023/12/29 03:55:31;;;;;;;28.95;17.50;;;;;;;-0.44;80.11;95297.38;5006333;28;20029;-72
2023/12/29 03:57:56;;;;;;;26.48;16.98;;;;;;;-0.56;81.01;95294.31;5006036;28;20046;-72
2023/12/29 04:00:22;;;;;;;26.38;16.65;;;;;;;-0.68;81.24;95300.63;5005678;28;20033;-72
2023/12/29 04:02:47;;;;;;;26.70;16.33;;;;;;;-0.54;80.46;95307.88;5008627;28;20033;-72
2023/12/29 04:05:13;;;;;;;23.13;13.57;;;;;;;-0.65;80.35;95294.59;5005321;28;20064;-72
2023/12/29 04:07:41;;;;;;;25.80;13.45;;;;;;;-1.01;81.54;95282.09;5007863;28;20100;-72
2023/12/29 04:10:08;;;;;;;19.63;11.32;;;;;;;-0.99;81.72;95262.50;5007860;28;20038;-72
2023/12/29 04:12:33;;;;;;;21.85;14.48;;;;;;;-0.85;81.11;95302.06;5005770;28;20030;-72
2023/12/29 04:14:59;;;;;;;45.55;26.35;;;;;;;-0.83;82.86;95308.78;4986697;28;20104;-72
2023/12/29 04:17:24;;;;;;;41.00;24.27;;;;;;;-0.96;83.80;95305.75;4991306;28;20485;-72
2023/12/29 04:19:50;;;;;;;28.80;17.25;;;;;;;-0.72;83.34;95303.34;4974238;28;20041;-72
2023/12/29 04:22:15;;;;;;;28.05;15.23;;;;;;;-0.64;82.61;95306.50;4989971;28;20022;-72
2023/12/29 04:24:40;;;;;;;25.58;15.27;;;;;;;-0.53;81.02;95294.22;4989161;28;20462;-72
2023/12/29 04:27:06;;;;;;;25.98;15.80;;;;;;;-0.69;81.37;95310.91;5009261;28;20061;-72
2023/12/29 04:29:31;;;;;;;62.47;44.95;;;;;;;-0.61;80.77;95311.50;4989371;28;20100;-73
2023/12/29 04:31:57;;;;;;;27.38;16.73;;;;;;;-0.92;81.32;95270.78;5006170;28;20488;-72
2023/12/29 04:34:22;;;;;;;35.25;17.70;;;;;;;-0.66;81.11;95307.44;5006877;28;20524;-72
2023/12/29 04:36:47;;;;;;;32.53;20.33;;;;;;;-1.00;81.51;95293.16;4976462;28;20029;-72
2023/12/29 04:39:13;;;;;;;25.42;16.50;;;;;;;-0.72;81.49;95300.81;4989660;28;20076;-72
2023/12/29 04:41:38;;;;;;;25.55;11.68;;;;;;;-0.65;81.14;95309.91;4990918;28;20354;-72
2023/12/29 04:44:04;;;;;;;22.92;12.63;;;;;;;-0.70;81.01;95307.53;4986689;28;20669;-72
2023/12/29 04:46:29;;;;;;;23.35;13.50;;;;;;;-0.91;81.77;95286.03;4976126;28;20033;-73
2023/12/29 04:48:54;;;;;;;20.10;11.98;;;;;;;-0.96;82.64;95300.66;5006522;28;20084;-72
2023/12/29 04:51:20;;;;;;;16.05;8.90;;;;;;;-0.74;82.53;95300.00;4990931;28;20034;-72
2023/12/29 04:53:46;;;;;;;15.10;9.30;;;;;;;-0.77;81.97;95311.13;5004918;28;20497;-72
2023/12/29 04:56:11;;;;;;;21.67;12.70;;;;;;;-0.92;82.62;95302.25;4971678;28;20038;-72
2023/12/29 04:58:37;;;;;;;20.65;11.32;;;;;;;-0.88;82.87;95302.97;4986818;28;20045;-72
2023/12/29 05:01:02;;;;;;;18.48;11.57;;;;;;;-0.83;82.79;95298.56;4974283;28;20029;-73
2023/12/29 05:03:28;;;;;;;12.38;7.22;;;;;;;-0.78;82.27;95278.00;4973002;28;20500;-72
2023/12/29 05:05:53;;;;;;;10.30;6.18;;;;;;;-0.80;81.60;95274.69;4993054;28;20030;-72
2023/12/29 05:08:19;;;;;;;12.85;8.00;;;;;;;-0.86;82.15;95274.84;4976999;28;20080;-73
2023/12/29 05:10:44;;;;;;;18.30;10.45;;;;;;;-1.04;82.96;95272.00;5012027;28;20033;-73
2023/12/29 05:13:09;;;;;;;19.45;11.20;;;;;;;-0.82;83.34;95286.66;4963123;28;20112;-72
2023/12/29 05:15:35;;;;;;;15.70;10.38;;;;;;;-0.75;82.97;95285.59;5002203;28;20030;-72
2023/12/29 05:18:01;;;;;;;18.48;11.02;;;;;;;-0.81;83.09;95288.31;5003220;28;20049;-72
2023/12/29 05:20:26;;;;;;;20.27;10.68;;;;;;;-0.82;83.31;95271.34;5004419;28;20030;-73
2023/12/29 05:22:52;;;;;;;14.93;9.40;;;;;;;-0.95;83.44;95269.19;5004883;28;20034;-72
2023/12/29 05:25:17;;;;;;;11.80;7.10;;;;;;;-0.66;83.09;95274.25;4989280;28;20285;-72
2023/12/29 05:27:42;;;;;;;14.02;8.10;;;;;;;-0.68;82.35;95264.09;4988386;28;20038;-72
2023/12/29 05:30:08;;;;;;;11.05;6.57;;;;;;;-0.63;82.38;95274.16;5006263;28;20030;-72
2023/12/29 05:32:33;;;;;;;12.93;9.05;;;;;;;-0.57;81.83;95282.44;5006119;28;20490;-72
2023/12/29 05:34:59;;;;;;;15.77;7.97;;;;;;;-0.59;81.39;95281.66;5002644;28;20022;-72
2023/12/29 05:37:24;;;;;;;15.65;8.05;;;;;;;-0.82;81.41;95290.03;5006358;28;20030;-72
2023/12/29 05:39:50;;;;;;;11.75;8.32;;;;;;;-1.24;82.23;95243.72;5006292;28;20029;-72
2023/12/29 05:42:15;;;;;;;16.02;9.80;;;;;;;-0.88;80.80;95290.22;5005120;28;20033;-72
2023/12/29 05:44:41;;;;;;;25.48;15.98;;;;;;;-0.92;81.37;95306.50;4983958;28;20034;-72
2023/12/29 05:47:06;;;;;;;21.35;14.27;;;;;;;-0.89;81.65;95311.53;5006309;28;20033;-72
2023/12/29 05:49:37;;;;;;;25.92;15.75;;;;;;;-1.03;82.29;95304.28;5004229;28;20035;-72
2023/12/29 05:52:03;;;;;;;26.10;13.18;;;;;;;-0.95;81.13;95307.44;4988410;28;20026;-72
2023/12/29 05:54:29;;;;;;;19.75;13.18;;;;;;;-0.97;81.13;95308.38;5001403;28;20046;-72
2023/12/29 05:56:54;;;;;;;22.27;13.95;;;;;;;-1.13;82.09;95306.25;4990499;28;20018;-72
2023/12/29 05:59:19;;;;;;;21.90;13.40;;;;;;;-1.22;81.84;95298.88;5007989;28;20440;-72
2023/12/29 06:01:45;;;;;;;35.60;20.30;;;;;;;-1.37;82.89;95294.22;5002708;28;20408;-72
2023/12/29 06:04:10;;;;;;;21.98;11.38;;;;;;;-0.99;82.09;95300.75;5002713;28;20477;-72
2023/12/29 06:06:36;;;;;;;16.98;10.52;;;;;;;-0.95;81.98;95302.34;5005428;28;20033;-73
2023/12/29 06:09:01;;;;;;;17.23;9.95;;;;;;;-1.15;81.42;95282.50;5007876;28;20030;-72
2023/12/29 06:11:27;;;;;;;16.35;10.27;;;;;;;-0.99;81.33;95288.00;4987238;28;20037;-72
2023/12/29 06:13:52;;;;;;;18.08;10.23;;;;;;;-1.06;81.21;95273.75;4985060;28;20098;-72
2023/12/29 06:16:19;;;;;;;19.10;11.52;;;;;;;-0.79;81.03;95289.94;5006588;28;20030;-72
2023/12/29 06:18:44;;;;;;;20.90;12.52;;;;;;;-1.15;80.56;95240.88;5003046;28;20484;-72
2023/12/29 06:21:10;;;;;;;19.73;12.18;;;;;;;-0.85;80.34;95279.91;5003593;28;20034;-72
2023/12/29 06:23:35;;;;;;;17.77;11.25;;;;;;;-0.82;80.06;95282.38;5004902;28;20554;-72
2023/12/29 06:26:01;;;;;;;20.35;12.73;;;;;;;-0.82;79.43;95279.81;4971742;28;20496;-73
2023/12/29 06:28:28;;;;;;;20.67;13.35;;;;;;;-1.07;80.80;95274.63;5006486;28;20459;-72
2023/12/29 06:30:53;;;;;;;20.48;12.75;;;;;;;-0.98;80.55;95281.16;4987466;28;20034;-72
2023/12/29 06:33:21;;;;;;;23.02;12.75;;;;;;;-0.95;79.97;95281.94;4970738;28;20620;-72
2023/12/29 06:35:47;;;;;;;22.20;13.38;;;;;;;-1.12;80.46;95279.03;4988321;28;20049;-72
2023/12/29 06:38:12;;;;;;;23.60;13.32;;;;;;;-1.17;81.14;95291.09;4971815;28;20157;-73
2023/12/29 06:40:38;;;;;;;20.13;12.73;;;;;;;-1.08;80.86;95306.13;4987854;28;20060;-72
2023/12/29 06:43:04;;;;;;;24.25;14.00;;;;;;;-1.02;81.18;95303.38;5007853;28;20793;-73
2023/12/29 06:45:29;;;;;;;23.42;13.60;;;;;;;-0.98;81.24;95307.50;5011287;28;20057;-72
2023/12/29 06:47:55;;;;;;;19.95;11.95;;;;;;;-0.99;80.92;95276.97;5006961;28;20451;-73
2023/12/29 06:50:20;;;;;;;20.33;12.55;;;;;;;-0.94;81.32;95296.34;4990276;28;20508;-73
2023/12/29 06:52:46;;;;;;;23.65;14.30;;;;;;;-1.00;81.41;95288.88;5008616;28;20045;-72
2023/12/29 06:55:11;;;;;;;32.58;18.80;;;;;;;-0.98;81.60;95297.31;5007325;28;20612;-73
2023/12/29 06:57:36;;;;;;;27.38;16.90;;;;;;;-0.81;81.42;95284.03;4987889;28;20034;-72
2023/12/29 07:00:03;;;;;;;30.23;16.98;;;;;;;-0.99;81.79;95293.09;5010925;28;20060;-73
2023/12/29 07:02:29;;;;;;;27.10;15.95;;;;;;;-0.75;81.02;95303.44;4992154;28;20045;-73
2023/12/29 07:04:54;;;;;;;29.73;18.65;;;;;;;-0.80;80.86;95305.31;5007792;28;20030;-72
2023/12/29 07:07:19;;;;;;;30.25;17.25;;;;;;;-0.83;81.30;95298.56;5008076;28;20037;-73
2023/12/29 07:09:45;;;;;;;31.20;17.00;;;;;;;-0.84;81.42;95293.50;5007168;28;20026;-72
2023/12/29 07:12:10;;;;;;;27.38;17.13;;;;;;;-0.75;81.46;95299.19;4992197;28;20033;-73
2023/12/29 07:14:36;;;;;;;29.73;17.10;;;;;;;-0.76;81.43;95304.31;5006615;28;20433;-72
2023/12/29 07:17:04;;;;;;;22.38;12.82;;;;;;;-0.91;81.76;95278.41;4991241;28;20566;-72
2023/12/29 07:19:36;;;;;;;16.80;10.60;;;;;;;-0.79;82.69;95296.75;4970946;28;20049;-72
2023/12/29 07:22:03;;;;;;;15.10;9.20;;;;;;;-0.75;81.96;95294.06;4991237;28;20523;-72
2023/12/29 07:24:28;;;;;;;18.75;9.48;;;;;;;-0.79;82.84;95284.81;4984342;28;20033;-73
2023/12/29 07:26:54;;;;;;;16.50;9.10;;;;;;;-0.65;82.88;95286.94;4990991;28;20037;-70
2023/12/29 07:29:19;;;;;;;12.27;7.35;;;;;;;-0.50;82.61;95270.34;5007357;28;20034;-69
2023/12/29 07:31:45;;;;;;;11.82;7.57;;;;;;;-0.80;82.88;95246.63;4992795;28;20415;-70
2023/12/29 07:34:10;;;;;;;14.15;9.32;;;;;;;-0.51;81.26;95273.75;4973417;28;20030;-69
2023/12/29 07:36:39;;;;;;;19.75;12.27;;;;;;;-0.65;81.74;95256.31;4958026;28;20030;-69
2023/12/29 07:39:04;;;;;;;23.58;13.73;;;;;;;-0.72;82.29;95268.47;4973349;28;20042;-73
2023/12/29 07:41:30;;;;;;;38.33;21.40;;;;;;;-0.60;83.51;95282.53;4975679;28;20068;-73
2023/12/29 07:43:55;;;;;;;24.45;14.77;;;;;;;-0.56;84.04;95281.53;4972672;28;20030;-66
2023/12/29 07:46:25;;;;;;;32.15;18.80;;;;;;;-0.46;84.03;95279.53;4976873;28;20414;-65
2023/12/29 07:48:51;;;;;;;24.33;16.00;;;;;;;-0.26;83.47;95286.56;4989365;28;20117;-66
2023/12/29 07:51:16;;;;;;;24.40;14.18;;;;;;;-0.51;83.93;95281.41;5008606;28;20070;-66
2023/12/29 07:53:41;;;;;;;21.40;12.93;;;;;;;-0.34;84.74;95283.41;4989544;28;20026;-66
2023/12/29 07:56:07;;;;;;;14.30;9.65;;;;;;;-0.07;83.28;95287.59;5009109;28;20037;-66
2023/12/29 07:58:32;;;;;;;16.15;9.80;;;;;;;0.03;83.63;95282.16;4976042;28;20045;-64
2023/12/29 08:00:58;;;;;;;17.65;11.38;;;;;;;0.31;83.00;95295.69;4991121;28;20564;-65
2023/12/29 08:03:23;;;;;;;18.77;11.25;;;;;;;0.34;82.32;95284.53;5007624;28;20041;-64
2023/12/29 08:05:48;;;;;;;19.40;11.50;;;;;;;0.50;82.28;95295.00;4959318;28;20496;-64
2023/12/29 08:08:14;;;;;;;19.95;11.63;;;;;;;0.66;81.85;95311.47;5009501;28;20100;-66
2023/12/29 08:10:39;;;;;;;18.10;12.02;;;;;;;0.72;81.31;95302.75;4991168;28;20038;-64
2023/12/29 08:13:08;;;;;;;26.67;17.15;;;;;;;0.77;82.39;95301.69;4975314;28;20061;-64
2023/12/29 08:15:34;;;;;;;23.63;15.63;;;;;;;0.98;83.06;95304.34;5007728;28;20479;-64
2023/12/29 08:17:59;;;;;;;28.42;18.25;;;;;;;1.13;82.86;95306.31;5007740;28;20049;-64
2023/12/29 08:20:25;;;;;;;30.30;17.95;;;;;;;1.22;82.23;95298.28;5008661;28;20080;-64
2023/12/29 08:22:50;;;;;;;34.78;22.48;;;;;;;1.28;82.71;95292.09;5007538;28;20064;-64
2023/12/29 08:25:15;;;;;;;32.58;22.52;;;;;;;1.13;83.66;95290.97;5004839;28;20514;-64
2023/12/29 08:27:41;;;;;;;32.00;20.88;;;;;;;1.53;82.16;95284.28;5009773;28;20492;-64
2023/12/29 08:30:07;;;;;;;35.47;22.77;;;;;;;1.78;81.44;95284.13;5007905;28;20029;-64
2023/12/29 08:32:33;;;;;;;32.63;22.63;;;;;;;1.93;81.09;95290.38;5008451;28;20053;-64
2023/12/29 08:34:59;;;;;;;35.95;24.05;;;;;;;2.02;80.86;95282.28;4987923;28;20303;-64
2023/12/29 08:37:24;;;;;;;35.38;24.13;;;;;;;2.05;80.98;95289.00;5002982;28;20042;-64
2023/12/29 08:39:49;;;;;;;36.35;22.98;;;;;;;2.00;81.08;95307.97;5007106;28;20022;-64
2023/12/29 08:42:15;;;;;;;40.58;26.48;;;;;;;2.14;80.50;95299.69;5006747;28;20079;-63
2023/12/29 08:44:40;;;;;;;44.25;27.27;;;;;;;1.96;80.85;95311.56;4986142;28;20141;-64
2023/12/29 08:47:08;;;;;;;41.25;25.48;;;;;;;2.15;80.72;95305.69;4987371;28;20041;-64
2023/12/29 08:49:34;;;;;;;39.85;24.98;;;;;;;2.34;80.05;95311.69;4990572;28;20038;-64
2023/12/29 08:52:00;;;;;;;44.60;25.85;;;;;;;2.44;79.87;95312.13;4990251;28;20053;-65
2023/12/29 08:54:25;;;;;;;47.35;27.65;;;;;;;2.45;79.57;95311.22;5005667;28;20034;-65
2023/12/29 08:56:51;;;;;;;42.55;27.17;;;;;;;2.40;80.05;95310.59;5008796;28;20428;-65
2023/12/29 08:59:16;;;;;;;41.53;27.23;;;;;;;2.75;78.64;95311.63;5009069;28;20034;-65
2023/12/29 09:01:41;;;;;;;49.03;27.52;;;;;;;3.02;77.20;95319.81;4991043;28;20034;-65
2023/12/29 09:04:07;;;;;;;45.75;26.38;;;;;;;3.24;77.18;95309.41;5005303;28;20034;-65
2023/12/29 09:06:32;;;;;;;36.10;23.27;;;;;;;3.27;76.77;95306.69;4987279;28;20034;-65
2023/12/29 09:08:58;;;;;;;40.40;27.08;;;;;;;3.24;77.05;95304.28;5007674;28;20037;-65
2023/12/29 09:11:23;;;;;;;42.20;25.75;;;;;;;3.50;76.50;95300.47;5008092;28;20472;-65
2023/12/29 09:13:49;;;;;;;40.75;25.33;;;;;;;3.71;76.33;95297.81;5006031;28;20416;-65
2023/12/29 09:16:14;;;;;;;40.22;25.92;;;;;;;3.70;75.81;95293.56;4987299;28;20043;-65
2023/12/29 09:18:39;;;;;;;43.03;24.52;;;;;;;3.92;74.81;95301.88;4976631;28;20428;-65
2023/12/29 09:21:05;;;;;;;34.88;24.10;;;;;;;3.93;74.72;95289.88;4971510;28;20037;-65
2023/12/29 09:23:30;;;;;;;40.20;25.65;;;;;;;3.97;74.96;95287.06;4986522;28;20084;-65
2023/12/29 09:25:56;;;;;;;42.38;25.05;;;;;;;4.05;74.78;95271.28;4989339;28;20424;-65
2023/12/29 09:28:21;;;;;;;38.03;24.30;;;;;;;3.98;75.53;95285.31;4990611;28;20500;-65
2023/12/29 09:30:46;;;;;;;36.78;22.45;;;;;;;4.37;73.73;95272.19;4989683;28;20026;-65
2023/12/29 09:33:12;;;;;;;39.78;23.70;;;;;;;4.58;73.11;95279.75;4998759;28;21067;-65
2023/12/29 09:35:38;;;;;;;30.23;19.27;;;;;;;4.73;73.03;95278.94;4972244;28;20030;-65
2023/12/29 09:38:04;;;;;;;31.80;20.08;;;;;;;4.84;73.45;95262.91;4971123;28;20069;-65
2023/12/29 09:40:29;;;;;;;32.35;21.52;;;;;;;5.00;72.84;95271.50;4970695;28;20041;-65
2023/12/29 09:42:55;;;;;;;29.65;18.08;;;;;;;5.21;72.57;95264.38;4993999;28;20488;-65
2023/12/29 09:45:24;;;;;;;27.02;18.23;;;;;;;5.35;71.26;95261.03;4999162;28;20201;-65
2023/12/29 09:47:51;;;;;;;31.13;20.17;;;;;;;5.51;71.37;95258.41;4989933;28;20041;-65
2023/12/29 09:50:16;;;;;;;33.60;21.63;;;;;;;5.51;70.76;95242.97;4967102;28;20484;-65
2023/12/29 09:52:42;;;;;;;26.75;18.65;;;;;;;5.69;70.67;95247.09;4972710;28;20137;-65
2023/12/29 09:55:12;;;;;;;29.90;18.00;;;;;;;5.94;70.19;95235.41;4962492;28;20034;-65
2023/12/29 09:57:38;;;;;;;23.25;15.73;;;;;;;6.06;70.58;95237.25;4974454;28;20563;-65
2023/12/29 10:00:04;;;;;;;22.58;14.77;;;;;;;5.93;70.54;95201.03;4955016;28;20023;-65
2023/12/29 10:02:29;;;;;;;20.70;15.02;;;;;;;6.25;70.31;95222.38;4952698;28;20039;-65
2023/12/29 10:04:55;;;;;;;17.30;13.40;;;;;;;6.43;69.50;95228.16;4956111;28;20034;-65
2023/12/29 10:07:24;;;;;;;23.88;15.63;;;;;;;6.52;68.84;95223.38;4970362;28;20042;-65
2023/12/29 10:09:51;;;;;;;23.85;16.67;;;;;;;6.42;69.42;95217.94;4987931;28;20084;-65
2023/12/29 10:12:16;;;;;;;25.40;16.77;;;;;;;6.59;68.79;95207.44;4970805;28;20475;-65
2023/12/29 10:15:10;;;;;;;25.35;14.93;;;;;;;6.68;68.73;95217.19;4978908;28;20065;-65
2023/12/29 10:17:44;;;;;;;21.13;12.82;;;;;;;6.80;68.94;95212.19;5003829;28;20026;-65
2023/12/29 10:20:30;;;;;;;23.13;13.02;;;;;;;6.78;68.75;95206.31;5007757;28;20044;-65
2023/12/29 10:23:19;;;;;;;31.05;18.75;;;;;;;6.79;67.85;95207.97;5003629;28;20034;-65
2023/12/29 10:25:44;;;;;;;28.88;18.58;;;;;;;6.81;66.95;95203.53;5005544;28;20081;-65
2023/12/29 10:28:10;;;;;;;29.83;19.35;;;;;;;6.85;68.09;95198.09;5006471;28;20048;-65
2023/12/29 10:30:36;;;;;;;24.65;17.73;;;;;;;6.82;67.73;95202.59;4986972;28;20121;-65
2023/12/29 10:33:02;;;;;;;27.70;17.85;;;;;;;6.86;66.82;95198.94;4986663;28;20052;-66
2023/12/29 10:35:29;;;;;;;23.08;15.90;;;;;;;6.96;66.96;95189.66;5005095;28;20287;-65
2023/12/29 10:37:54;;;;;;;24.38;16.58;;;;;;;6.89;66.01;95152.25;4988980;28;20519;-65
2023/12/29 10:40:20;;;;;;;24.33;16.73;;;;;;;7.14;66.72;95180.75;5003415;28;20026;-65
2023/12/29 10:42:53;;;;;;;24.70;17.15;;;;;;;7.24;66.40;95178.41;4988934;28;20527;-65
2023/12/29 10:45:18;;;;;;;26.35;18.58;;;;;;;7.15;67.05;95169.50;5005112;28;20029;-65
2023/12/29 10:47:44;;;;;;;28.85;19.02;;;;;;;7.16;67.21;95163.41;5006112;28;20423;-65
2023/12/29 10:50:09;;;;;;;25.88;17.00;;;;;;;7.47;67.02;95152.88;5007151;28;20041;-65
2023/12/29 10:52:37;;;;;;;27.63;18.00;;;;;;;7.63;66.74;95155.25;5005622;28;20026;-65
2023/12/29 10:55:09;;;;;;;31.20;21.33;;;;;;;7.41;67.20;95142.91;4996360;28;20029;-65
2023/12/29 10:57:35;;;;;;;31.52;20.02;;;;;;;7.53;67.30;95142.94;4989245;28;20049;-65
2023/12/29 11:00:01;;;;;;;25.95;17.90;;;;;;;7.86;66.35;95138.22;5005648;28;20057;-65
2023/12/29 11:02:28;;;;;;;39.28;22.90;;;;;;;7.74;66.79;95130.34;5004715;28;20045;-65
2023/12/29 11:05:02;;;;;;;31.80;23.02;;;;;;;7.80;66.11;95132.53;5001164;28;20026;-65
2023/12/29 11:07:35;;;;;;;35.78;22.75;;;;;;;7.87;65.41;95132.13;5003588;28;20038;-65
2023/12/29 11:10:02;;;;;;;32.92;21.42;;;;;;;7.92;65.41;95132.66;5005475;28;20053;-65
2023/12/29 11:12:30;;;;;;;32.28;22.60;;;;;;;7.98;64.54;95120.09;5006312;28;20475;-65
2023/12/29 11:14:55;;;;;;;39.20;22.80;;;;;;;8.05;64.89;95117.91;4983314;28;20493;-65
2023/12/29 11:17:20;;;;;;;34.85;21.45;;;;;;;8.26;65.28;95113.88;5003331;28;20038;-65